sensor_id;sensor_type;location;lat;lon;timestamp;temperature;humidity
5492;DHT22;2768;53.540;10.224;2022-09-12T00:00:21;14.20;99.90
5492;DHT22;2768;53.540;10.224;2022-09-12T00:06:17;14.00;99.90
5492;DHT22;2768;53.540;10.224;2022-09-12T00:12:13;14.10;99.90
5492;DHT22;2768;53.540;10.224;2022-09-12T00:18:13;14.00;99.90
5492;DHT22;2768;53.540;10.224;2022-09-12T00:24:07;13.90;99.90
5492;DHT22;2768;53.540;10.224;2022-09-12T00:30:00;13.70;99.90
5492;DHT22;2768;53.540;10.224;2022-09-12T00:35:55;13.70;99.90
5492;DHT22;2768;53.540;10.224;2022-09-12T00:41:48;13.80;99.90
5492;DHT22;2768;53.540;10.224;2022-09-12T00:47:42;13.90;99.90
5492;DHT22;2768;53.540;10.224;2022-09-12T00:53:38;13.80;99.90
5492;DHT22;2768;53.540;10.224;2022-09-12T00:59:34;13.70;99.90
5492;DHT22;2768;53.540;10.224;2022-09-12T01:05:30;13.50;99.90
5492;DHT22;2768;53.540;10.224;2022-09-12T01:11:27;13.40;99.90
5492;DHT22;2768;53.540;10.224;2022-09-12T01:17:23;13.50;99.90
5492;DHT22;2768;53.540;10.224;2022-09-12T01:30:16;13.30;99.90
5492;DHT22;2768;53.540;10.224;2022-09-12T01:36:35;13.20;99.90
5492;DHT22;2768;53.540;10.224;2022-09-12T01:42:33;13.20;99.90
5492;DHT22;2768;53.540;10.224;2022-09-12T01:48:29;13.30;99.90
5492;DHT22;2768;53.540;10.224;2022-09-12T01:54:33;13.20;99.90
5492;DHT22;2768;53.540;10.224;2022-09-12T02:00:31;13.10;99.90
5492;DHT22;2768;53.540;10.224;2022-09-12T02:06:30;13.00;99.90
5492;DHT22;2768;53.540;10.224;2022-09-12T02:12:28;13.00;99.90
5492;DHT22;2768;53.540;10.224;2022-09-12T02:18:25;12.80;99.90
5492;DHT22;2768;53.540;10.224;2022-09-12T02:24:22;12.90;99.90
5492;DHT22;2768;53.540;10.224;2022-09-12T02:30:17;12.80;99.90
5492;DHT22;2768;53.540;10.224;2022-09-12T02:36:15;12.80;99.90
5492;DHT22;2768;53.540;10.224;2022-09-12T02:42:16;13.00;99.90
5492;DHT22;2768;53.540;10.224;2022-09-12T02:48:13;12.90;99.90
5492;DHT22;2768;53.540;10.224;2022-09-12T02:54:07;12.80;99.90
5492;DHT22;2768;53.540;10.224;2022-09-12T03:00:05;12.70;99.90
5492;DHT22;2768;53.540;10.224;2022-09-12T03:06:00;12.80;99.90
5492;DHT22;2768;53.540;10.224;2022-09-12T03:12:04;12.60;99.90
5492;DHT22;2768;53.540;10.224;2022-09-12T03:18:18;12.50;99.90
5492;DHT22;2768;53.540;10.224;2022-09-12T03:24:17;12.50;99.90
5492;DHT22;2768;53.540;10.224;2022-09-12T03:30:11;12.30;99.90
5492;DHT22;2768;53.540;10.224;2022-09-12T03:36:08;12.30;99.90
5492;DHT22;2768;53.540;10.224;2022-09-12T03:42:06;12.20;99.90
5492;DHT22;2768;53.540;10.224;2022-09-12T03:47:59;12.30;99.90
5492;DHT22;2768;53.540;10.224;2022-09-12T03:53:54;12.20;99.90
5492;DHT22;2768;53.540;10.224;2022-09-12T03:59:48;12.40;99.90
5492;DHT22;2768;53.540;10.224;2022-09-12T04:05:41;12.20;99.90
5492;DHT22;2768;53.540;10.224;2022-09-12T04:11:36;12.00;99.90
5492;DHT22;2768;53.540;10.224;2022-09-12T04:17:29;12.40;99.90
5492;DHT22;2768;53.540;10.224;2022-09-12T04:23:23;12.10;99.90
5492;DHT22;2768;53.540;10.224;2022-09-12T04:29:17;12.10;99.90
5492;DHT22;2768;53.540;10.224;2022-09-12T04:35:11;12.40;99.90
5492;DHT22;2768;53.540;10.224;2022-09-12T04:41:12;12.40;99.90
5492;DHT22;2768;53.540;10.224;2022-09-12T04:47:07;12.20;99.90
5492;DHT22;2768;53.540;10.224;2022-09-12T04:53:00;12.10;99.90
5492;DHT22;2768;53.540;10.224;2022-09-12T04:58:55;12.10;99.90
5492;DHT22;2768;53.540;10.224;2022-09-12T05:04:50;12.20;99.90
5492;DHT22;2768;53.540;10.224;2022-09-12T05:10:43;12.20;99.90
5492;DHT22;2768;53.540;10.224;2022-09-12T05:16:36;12.30;99.90
5492;DHT22;2768;53.540;10.224;2022-09-12T05:22:31;12.40;99.90
5492;DHT22;2768;53.540;10.224;2022-09-12T05:28:27;12.60;99.90
5492;DHT22;2768;53.540;10.224;2022-09-12T05:34:21;12.70;99.90
5492;DHT22;2768;53.540;10.224;2022-09-12T05:40:15;12.70;99.90
5492;DHT22;2768;53.540;10.224;2022-09-12T05:46:11;12.30;99.90
5492;DHT22;2768;53.540;10.224;2022-09-12T05:52:04;12.70;99.90
5492;DHT22;2768;53.540;10.224;2022-09-12T05:57:59;12.90;99.90
5492;DHT22;2768;53.540;10.224;2022-09-12T06:03:55;13.00;99.90
5492;DHT22;2768;53.540;10.224;2022-09-12T06:09:48;13.10;99.90
5492;DHT22;2768;53.540;10.224;2022-09-12T06:15:43;13.40;99.90
5492;DHT22;2768;53.540;10.224;2022-09-12T06:21:36;13.40;99.90
5492;DHT22;2768;53.540;10.224;2022-09-12T06:27:30;13.60;99.90
5492;DHT22;2768;53.540;10.224;2022-09-12T06:33:24;13.40;99.90
5492;DHT22;2768;53.540;10.224;2022-09-12T06:39:20;13.60;99.90
5492;DHT22;2768;53.540;10.224;2022-09-12T06:45:13;13.70;99.90
5492;DHT22;2768;53.540;10.224;2022-09-12T06:51:11;14.00;99.90
5492;DHT22;2768;53.540;10.224;2022-09-12T06:57:04;14.30;99.90
5492;DHT22;2768;53.540;10.224;2022-09-12T07:02:57;14.30;99.90
5492;DHT22;2768;53.540;10.224;2022-09-12T07:08:52;14.50;1.00
5492;DHT22;2768;53.540;10.224;2022-09-12T07:14:45;14.70;1.00
5492;DHT22;2768;53.540;10.224;2022-09-12T07:20:38;14.90;1.00
5492;DHT22;2768;53.540;10.224;2022-09-12T07:26:34;15.10;1.00
5492;DHT22;2768;53.540;10.224;2022-09-12T07:32:27;15.20;1.00
5492;DHT22;2768;53.540;10.224;2022-09-12T07:38:20;15.10;1.00
5492;DHT22;2768;53.540;10.224;2022-09-12T07:44:15;15.20;1.00
5492;DHT22;2768;53.540;10.224;2022-09-12T07:50:09;15.40;1.00
5492;DHT22;2768;53.540;10.224;2022-09-12T07:56:03;15.60;1.00
5492;DHT22;2768;53.540;10.224;2022-09-12T08:01:59;15.90;1.00
5492;DHT22;2768;53.540;10.224;2022-09-12T08:07:52;16.20;1.00
5492;DHT22;2768;53.540;10.224;2022-09-12T08:13:48;16.30;99.90
5492;DHT22;2768;53.540;10.224;2022-09-12T08:19:47;16.40;99.90
5492;DHT22;2768;53.540;10.224;2022-09-12T08:25:41;16.50;99.90
5492;DHT22;2768;53.540;10.224;2022-09-12T08:31:34;16.80;99.90
5492;DHT22;2768;53.540;10.224;2022-09-12T08:37:30;17.00;99.90
5492;DHT22;2768;53.540;10.224;2022-09-12T08:43:31;17.10;99.90
5492;DHT22;2768;53.540;10.224;2022-09-12T08:49:27;17.40;99.90
5492;DHT22;2768;53.540;10.224;2022-09-12T08:55:30;17.50;99.90
5492;DHT22;2768;53.540;10.224;2022-09-12T09:01:29;17.50;99.90
5492;DHT22;2768;53.540;10.224;2022-09-12T09:07:36;17.70;99.90
5492;DHT22;2768;53.540;10.224;2022-09-12T09:13:45;17.70;99.90
5492;DHT22;2768;53.540;10.224;2022-09-12T09:20:04;17.90;99.90
5492;DHT22;2768;53.540;10.224;2022-09-12T09:26:05;18.00;99.90
5492;DHT22;2768;53.540;10.224;2022-09-12T09:32:05;18.20;99.90
5492;DHT22;2768;53.540;10.224;2022-09-12T09:38:11;18.30;99.90
5492;DHT22;2768;53.540;10.224;2022-09-12T09:44:07;18.50;99.90
5492;DHT22;2768;53.540;10.224;2022-09-12T09:50:01;18.80;99.90
5492;DHT22;2768;53.540;10.224;2022-09-12T09:55:55;18.80;99.90
5492;DHT22;2768;53.540;10.224;2022-09-12T10:01:51;19.20;99.90
5492;DHT22;2768;53.540;10.224;2022-09-12T10:07:51;19.40;99.90
5492;DHT22;2768;53.540;10.224;2022-09-12T10:13:54;19.30;99.90
5492;DHT22;2768;53.540;10.224;2022-09-12T10:19:48;19.40;99.90
5492;DHT22;2768;53.540;10.224;2022-09-12T10:26:08;19.30;99.90
5492;DHT22;2768;53.540;10.224;2022-09-12T10:32:04;19.80;99.90
5492;DHT22;2768;53.540;10.224;2022-09-12T10:38:01;20.00;99.90
5492;DHT22;2768;53.540;10.224;2022-09-12T10:44:05;19.90;99.90
5492;DHT22;2768;53.540;10.224;2022-09-12T10:50:19;20.40;99.90
5492;DHT22;2768;53.540;10.224;2022-09-12T10:56:17;20.70;99.90
5492;DHT22;2768;53.540;10.224;2022-09-12T11:02:17;20.80;99.90
5492;DHT22;2768;53.540;10.224;2022-09-12T11:14:48;21.20;99.90
5492;DHT22;2768;53.540;10.224;2022-09-12T11:20:56;20.90;99.90
5492;DHT22;2768;53.540;10.224;2022-09-12T11:27:02;21.20;99.90
5492;DHT22;2768;53.540;10.224;2022-09-12T11:33:12;21.10;99.90
5492;DHT22;2768;53.540;10.224;2022-09-12T11:39:14;21.20;99.90
5492;DHT22;2768;53.540;10.224;2022-09-12T11:45:14;20.80;98.50
5492;DHT22;2768;53.540;10.224;2022-09-12T11:51:16;20.60;96.10
5492;DHT22;2768;53.540;10.224;2022-09-12T11:57:15;20.70;95.50
5492;DHT22;2768;53.540;10.224;2022-09-12T12:03:14;21.10;94.90
5492;DHT22;2768;53.540;10.224;2022-09-12T12:09:11;21.30;93.10
5492;DHT22;2768;53.540;10.224;2022-09-12T12:15:12;21.40;74.20
5492;DHT22;2768;53.540;10.224;2022-09-12T12:21:25;21.50;69.10
5492;DHT22;2768;53.540;10.224;2022-09-12T12:27:24;21.90;64.20
5492;DHT22;2768;53.540;10.224;2022-09-12T12:40:07;22.30;51.80
5492;DHT22;2768;53.540;10.224;2022-09-12T12:46:10;22.30;34.20
5492;DHT22;2768;53.540;10.224;2022-09-12T12:52:03;22.10;34.80
5492;DHT22;2768;53.540;10.224;2022-09-12T12:57:58;21.90;32.70
5492;DHT22;2768;53.540;10.224;2022-09-12T13:03:54;22.00;38.10
5492;DHT22;2768;53.540;10.224;2022-09-12T13:09:50;22.20;38.70
5492;DHT22;2768;53.540;10.224;2022-09-12T13:15:49;21.80;31.30
5492;DHT22;2768;53.540;10.224;2022-09-12T13:21:54;21.60;43.00
5492;DHT22;2768;53.540;10.224;2022-09-12T13:28:02;21.60;38.80
5492;DHT22;2768;53.540;10.224;2022-09-12T13:33:58;21.70;42.40
5492;DHT22;2768;53.540;10.224;2022-09-12T13:39:59;21.80;41.20
5492;DHT22;2768;53.540;10.224;2022-09-12T13:45:56;21.30;37.60
5492;DHT22;2768;53.540;10.224;2022-09-12T13:51:58;21.70;47.20
5492;DHT22;2768;53.540;10.224;2022-09-12T13:57:56;22.10;39.20
5492;DHT22;2768;53.540;10.224;2022-09-12T14:03:51;22.40;40.50
5492;DHT22;2768;53.540;10.224;2022-09-12T14:10:00;22.20;31.20
5492;DHT22;2768;53.540;10.224;2022-09-12T14:15:55;21.90;31.30
5492;DHT22;2768;53.540;10.224;2022-09-12T14:21:50;21.70;38.90
5492;DHT22;2768;53.540;10.224;2022-09-12T14:27:46;21.60;38.20
5492;DHT22;2768;53.540;10.224;2022-09-12T14:33:46;21.70;33.60
5492;DHT22;2768;53.540;10.224;2022-09-12T14:39:42;21.80;27.40
5492;DHT22;2768;53.540;10.224;2022-09-12T14:45:37;22.00;24.60
5492;DHT22;2768;53.540;10.224;2022-09-12T14:51:32;23.60;16.50
5492;DHT22;2768;53.540;10.224;2022-09-12T14:57:33;24.90;1.00
5492;DHT22;2768;53.540;10.224;2022-09-12T15:03:31;24.00;1.00
5492;DHT22;2768;53.540;10.224;2022-09-12T15:09:24;23.40;1.00
5492;DHT22;2768;53.540;10.224;2022-09-12T15:15:19;23.20;1.00
5492;DHT22;2768;53.540;10.224;2022-09-12T15:21:17;23.30;1.00
5492;DHT22;2768;53.540;10.224;2022-09-12T15:27:11;22.80;1.00
5492;DHT22;2768;53.540;10.224;2022-09-12T15:33:04;22.60;1.00
5492;DHT22;2768;53.540;10.224;2022-09-12T15:38:59;22.20;1.00
5492;DHT22;2768;53.540;10.224;2022-09-12T15:44:52;22.20;1.00
5492;DHT22;2768;53.540;10.224;2022-09-12T15:50:51;22.40;1.00
5492;DHT22;2768;53.540;10.224;2022-09-12T15:56:45;22.40;1.00
5492;DHT22;2768;53.540;10.224;2022-09-12T16:02:39;22.50;1.00
5492;DHT22;2768;53.540;10.224;2022-09-12T16:08:32;22.10;1.00
5492;DHT22;2768;53.540;10.224;2022-09-12T16:14:27;21.80;1.00
5492;DHT22;2768;53.540;10.224;2022-09-12T16:20:21;21.80;1.00
5492;DHT22;2768;53.540;10.224;2022-09-12T16:26:16;21.70;1.00
5492;DHT22;2768;53.540;10.224;2022-09-12T16:32:10;21.60;1.00
5492;DHT22;2768;53.540;10.224;2022-09-12T16:38:03;21.50;1.00
5492;DHT22;2768;53.540;10.224;2022-09-12T16:43:58;21.40;1.00
5492;DHT22;2768;53.540;10.224;2022-09-12T16:49:53;21.30;1.00
5492;DHT22;2768;53.540;10.224;2022-09-12T16:55:47;21.10;1.00
5492;DHT22;2768;53.540;10.224;2022-09-12T17:01:41;20.90;1.00
5492;DHT22;2768;53.540;10.224;2022-09-12T17:07:37;20.80;2.20
5492;DHT22;2768;53.540;10.224;2022-09-12T17:13:30;20.80;5.90
5492;DHT22;2768;53.540;10.224;2022-09-12T17:19:44;20.80;9.60
5492;DHT22;2768;53.540;10.224;2022-09-12T17:25:38;20.70;14.50
5492;DHT22;2768;53.540;10.224;2022-09-12T17:31:32;20.60;21.90
5492;DHT22;2768;53.540;10.224;2022-09-12T17:37:25;20.70;23.10
5492;DHT22;2768;53.540;10.224;2022-09-12T17:43:20;20.60;24.20
5492;DHT22;2768;53.540;10.224;2022-09-12T17:49:15;20.60;26.90
5492;DHT22;2768;53.540;10.224;2022-09-12T17:55:09;20.60;29.90
5492;DHT22;2768;53.540;10.224;2022-09-12T18:01:06;20.40;35.40
5492;DHT22;2768;53.540;10.224;2022-09-12T18:07:18;20.50;45.20
5492;DHT22;2768;53.540;10.224;2022-09-12T18:13:12;20.30;44.50
5492;DHT22;2768;53.540;10.224;2022-09-12T18:19:08;20.00;51.20
5492;DHT22;2768;53.540;10.224;2022-09-12T18:25:02;20.20;59.10
5492;DHT22;2768;53.540;10.224;2022-09-12T18:30:55;20.00;64.40
5492;DHT22;2768;53.540;10.224;2022-09-12T18:36:51;19.90;67.70
5492;DHT22;2768;53.540;10.224;2022-09-12T18:42:45;19.80;73.10
5492;DHT22;2768;53.540;10.224;2022-09-12T18:48:39;19.70;75.70
5492;DHT22;2768;53.540;10.224;2022-09-12T18:54:33;19.70;78.10
5492;DHT22;2768;53.540;10.224;2022-09-12T19:00:28;19.40;84.70
5492;DHT22;2768;53.540;10.224;2022-09-12T19:06:22;19.30;90.10
5492;DHT22;2768;53.540;10.224;2022-09-12T19:12:17;19.30;92.20
5492;DHT22;2768;53.540;10.224;2022-09-12T19:18:10;19.30;93.50
5492;DHT22;2768;53.540;10.224;2022-09-12T19:24:06;19.30;95.40
5492;DHT22;2768;53.540;10.224;2022-09-12T19:30:02;19.20;95.80
5492;DHT22;2768;53.540;10.224;2022-09-12T19:35:59;19.20;98.30
5492;DHT22;2768;53.540;10.224;2022-09-12T19:41:52;19.20;99.90
5492;DHT22;2768;53.540;10.224;2022-09-12T19:47:47;19.20;99.90
5492;DHT22;2768;53.540;10.224;2022-09-12T19:53:41;19.20;99.90
5492;DHT22;2768;53.540;10.224;2022-09-12T19:59:35;19.10;99.90
5492;DHT22;2768;53.540;10.224;2022-09-12T20:05:30;19.00;99.90
5492;DHT22;2768;53.540;10.224;2022-09-12T20:11:24;18.90;99.90
5492;DHT22;2768;53.540;10.224;2022-09-12T20:17:17;18.80;99.90
5492;DHT22;2768;53.540;10.224;2022-09-12T20:23:12;18.80;99.90
5492;DHT22;2768;53.540;10.224;2022-09-12T20:29:05;18.70;99.90
5492;DHT22;2768;53.540;10.224;2022-09-12T20:34:59;18.80;99.90
5492;DHT22;2768;53.540;10.224;2022-09-12T20:40:54;18.60;99.90
5492;DHT22;2768;53.540;10.224;2022-09-12T20:46:47;18.60;99.90
5492;DHT22;2768;53.540;10.224;2022-09-12T20:52:40;18.50;99.90
5492;DHT22;2768;53.540;10.224;2022-09-12T20:58:35;18.50;99.90
5492;DHT22;2768;53.540;10.224;2022-09-12T21:04:34;18.40;99.90
5492;DHT22;2768;53.540;10.224;2022-09-12T21:10:28;18.20;99.90
5492;DHT22;2768;53.540;10.224;2022-09-12T21:16:23;18.20;99.90
5492;DHT22;2768;53.540;10.224;2022-09-12T21:22:17;18.20;99.90
5492;DHT22;2768;53.540;10.224;2022-09-12T21:28:10;18.20;99.90
5492;DHT22;2768;53.540;10.224;2022-09-12T21:34:04;18.10;99.90
5492;DHT22;2768;53.540;10.224;2022-09-12T21:39:58;18.00;99.90
5492;DHT22;2768;53.540;10.224;2022-09-12T21:45:56;18.10;99.90
5492;DHT22;2768;53.540;10.224;2022-09-12T21:51:50;17.80;99.90
5492;DHT22;2768;53.540;10.224;2022-09-12T21:57:44;17.70;99.90
5492;DHT22;2768;53.540;10.224;2022-09-12T22:03:38;17.70;99.90
5492;DHT22;2768;53.540;10.224;2022-09-12T22:09:35;17.60;99.90
5492;DHT22;2768;53.540;10.224;2022-09-12T22:15:29;17.60;99.90
5492;DHT22;2768;53.540;10.224;2022-09-12T22:21:32;17.60;99.90
5492;DHT22;2768;53.540;10.224;2022-09-12T22:27:27;17.60;99.90
5492;DHT22;2768;53.540;10.224;2022-09-12T22:33:20;17.50;99.90
5492;DHT22;2768;53.540;10.224;2022-09-12T22:39:14;17.40;99.90
5492;DHT22;2768;53.540;10.224;2022-09-12T22:45:09;17.50;99.90
5492;DHT22;2768;53.540;10.224;2022-09-12T22:51:03;17.40;99.90
5492;DHT22;2768;53.540;10.224;2022-09-12T22:56:56;17.50;99.90
5492;DHT22;2768;53.540;10.224;2022-09-12T23:02:51;17.50;99.90
5492;DHT22;2768;53.540;10.224;2022-09-12T23:08:44;17.40;99.90
5492;DHT22;2768;53.540;10.224;2022-09-12T23:14:37;17.40;99.90
5492;DHT22;2768;53.540;10.224;2022-09-12T23:20:32;17.50;99.90
5492;DHT22;2768;53.540;10.224;2022-09-12T23:26:26;17.30;99.90
5492;DHT22;2768;53.540;10.224;2022-09-12T23:32:20;17.30;99.90
5492;DHT22;2768;53.540;10.224;2022-09-12T23:38:15;17.40;99.90
5492;DHT22;2768;53.540;10.224;2022-09-12T23:44:08;17.30;99.90
5492;DHT22;2768;53.540;10.224;2022-09-12T23:50:01;17.50;99.90
5492;DHT22;2768;53.540;10.224;2022-09-12T23:55:56;17.20;99.90
